Time;durP1;ratioP1;P1;durP2;ratioP2;P2;SDS_P1;SDS_P2;PMS_P1;PMS_P2;Temp;Humidity;BMP_temperature;BMP_pressure;BME280_temperature;BME280_humidity;BME280_pressure;Samples;Min_cycle;Max_cycle;Signal;HPM_P1;HPM_P2
2023/07/20 00:02:08;;;;;;;8.40;4.07;;;;;;;;;;5073227;28;20021;-79
2023/07/20 00:04:35;;;;;;;8.40;2.97;;;;;;;;;;5071785;28;20032;-79
2023/07/20 00:07:01;;;;;;;10.00;3.60;;;;;;;;;;5073338;28;20047;-79
2023/07/20 00:09:27;;;;;;;11.57;4.28;;;;;;;;;;5071726;28;20055;-79
2023/07/20 00:11:53;;;;;;;12.30;3.88;;;;;;;;;;5073066;28;20029;-80
2023/07/20 00:14:20;;;;;;;11.73;3.40;;;;;;;;;;5073361;28;20103;-80
2023/07/20 00:16:49;;;;;;;12.82;4.10;;;;;;;;;;5071794;28;20074;-80
2023/07/20 00:19:16;;;;;;;10.82;3.28;;;;;;;;;;5073190;28;20070;-78
2023/07/20 00:21:42;;;;;;;11.90;3.42;;;;;;;;;;5073068;28;20017;-79
2023/07/20 00:24:08;;;;;;;9.93;3.40;;;;;;;;;;5071822;28;20413;-78
2023/07/20 00:26:34;;;;;;;7.95;3.53;;;;;;;;;;5072776;28;20108;-79
2023/07/20 00:29:01;;;;;;;9.90;4.10;;;;;;;;;;5073042;28;20063;-78
2023/07/20 00:31:27;;;;;;;10.70;4.00;;;;;;;;;;5091546;28;20036;-79
2023/07/20 00:33:53;;;;;;;15.02;4.63;;;;;;;;;;5093422;28;20023;-79
2023/07/20 00:36:19;;;;;;;12.82;3.85;;;;;;;;;;5090901;28;20379;-79
2023/07/20 00:38:45;;;;;;;10.30;3.78;;;;;;;;;;5091723;28;20123;-79
2023/07/20 00:41:11;;;;;;;7.78;3.70;;;;;;;;;;5093344;28;20057;-79
2023/07/20 00:43:37;;;;;;;9.68;4.25;;;;;;;;;;5096859;28;20016;-78
2023/07/20 00:46:04;;;;;;;10.98;4.80;;;;;;;;;;5095281;28;20024;-78
2023/07/20 00:48:31;;;;;;;12.68;4.38;;;;;;;;;;5095466;28;20020;-79
2023/07/20 00:50:58;;;;;;;10.80;3.95;;;;;;;;;;5095520;28;20028;-78
2023/07/20 00:53:25;;;;;;;14.07;5.32;;;;;;;;;;5095214;28;20060;-78
2023/07/20 00:55:51;;;;;;;13.98;4.57;;;;;;;;;;5096913;28;20020;-79
2023/07/20 00:58:17;;;;;;;11.60;4.30;;;;;;;;;;5095472;28;20028;-78
2023/07/20 01:00:44;;;;;;;11.65;4.93;;;;;;;;;;5094955;28;20020;-77
2023/07/20 01:03:10;;;;;;;12.23;4.72;;;;;;;;;;5095472;28;20472;-79
2023/07/20 01:05:42;;;;;;;10.45;4.53;;;;;;;;;;5095453;28;20020;-77
2023/07/20 01:08:13;;;;;;;13.73;4.53;;;;;;;;;;5094920;28;20016;-76
2023/07/20 01:10:51;;;;;;;8.90;3.75;;;;;;;;;;5097610;28;20048;-76
2023/07/20 01:13:19;;;;;;;10.95;3.75;;;;;;;;;;5106110;28;20020;-76
2023/07/20 01:15:51;;;;;;;11.70;5.15;;;;;;;;;;5097448;28;20020;-77
2023/07/20 01:18:18;;;;;;;8.98;4.40;;;;;;;;;;5096747;28;20091;-76
2023/07/20 01:20:44;;;;;;;13.23;5.15;;;;;;;;;;5094549;28;20529;-77
2023/07/20 01:23:19;;;;;;;14.68;5.10;;;;;;;;;;5095028;28;20024;-77
2023/07/20 01:25:55;;;;;;;8.00;3.97;;;;;;;;;;5095865;28;20380;-78
2023/07/20 01:28:40;;;;;;;12.32;5.13;;;;;;;;;;5095910;28;20025;-77
2023/07/20 01:31:14;;;;;;;12.27;4.38;;;;;;;;;;5095994;28;20039;-78
2023/07/20 01:33:42;;;;;;;8.23;4.05;;;;;;;;;;5094583;28;20024;-78
2023/07/20 01:36:09;;;;;;;9.68;3.97;;;;;;;;;;5094384;28;20028;-77
2023/07/20 01:38:35;;;;;;;7.63;4.32;;;;;;;;;;5094822;28;20020;-76
2023/07/20 01:41:02;;;;;;;12.00;4.43;;;;;;;;;;5094611;28;20387;-77
2023/07/20 01:43:28;;;;;;;11.82;4.65;;;;;;;;;;5094339;28;20106;-77
2023/07/20 01:45:54;;;;;;;10.23;3.97;;;;;;;;;;5094840;28;20028;-78
2023/07/20 01:48:20;;;;;;;14.25;4.70;;;;;;;;;;5094347;28;20031;-76
2023/07/20 01:50:46;;;;;;;11.30;4.15;;;;;;;;;;5094281;28;20028;-77
2023/07/20 01:53:13;;;;;;;11.15;4.60;;;;;;;;;;5093423;28;20368;-76
2023/07/20 01:55:39;;;;;;;12.45;4.60;;;;;;;;;;5089426;28;20024;-79
2023/07/20 01:58:06;;;;;;;16.10;4.80;;;;;;;;;;5101220;28;20055;-76
2023/07/20 02:00:32;;;;;;;14.32;4.43;;;;;;;;;;5110937;28;20157;-77
2023/07/20 02:02:58;;;;;;;15.10;4.53;;;;;;;;;;5094126;28;20020;-76
2023/07/20 02:05:24;;;;;;;14.40;6.10;;;;;;;;;;5111194;28;20249;-77
2023/07/20 02:07:50;;;;;;;12.85;5.43;;;;;;;;;;5120367;27;20012;-78
2023/07/20 02:10:17;;;;;;;13.27;4.90;;;;;;;;;;5112383;28;20088;-77
2023/07/20 02:12:43;;;;;;;12.40;4.13;;;;;;;;;;5111138;28;20111;-78
2023/07/20 02:15:09;;;;;;;9.20;4.00;;;;;;;;;;5111079;28;20476;-76
2023/07/20 02:17:35;;;;;;;13.43;4.32;;;;;;;;;;5094689;28;20065;-77
2023/07/20 02:20:01;;;;;;;10.73;3.97;;;;;;;;;;5110844;28;20020;-79
2023/07/20 02:22:27;;;;;;;10.52;4.50;;;;;;;;;;5095194;28;20043;-77
2023/07/20 02:24:53;;;;;;;10.77;4.20;;;;;;;;;;5094496;28;20043;-77
2023/07/20 02:27:19;;;;;;;11.52;4.22;;;;;;;;;;5110719;28;20056;-78
2023/07/20 02:29:46;;;;;;;9.73;4.65;;;;;;;;;;5110489;28;20036;-79
2023/07/20 02:32:12;;;;;;;8.38;4.15;;;;;;;;;;5110194;28;20117;-77
2023/07/20 02:34:38;;;;;;;9.93;4.70;;;;;;;;;;5094870;28;20032;-77
2023/07/20 02:37:04;;;;;;;9.98;4.07;;;;;;;;;;5110541;28;20387;-78
2023/07/20 02:39:31;;;;;;;12.00;4.25;;;;;;;;;;5109791;28;20020;-77
2023/07/20 02:41:57;;;;;;;12.65;4.40;;;;;;;;;;5094741;28;20027;-79
2023/07/20 02:44:23;;;;;;;7.93;3.58;;;;;;;;;;5110032;28;20028;-79
2023/07/20 02:46:49;;;;;;;10.25;3.85;;;;;;;;;;5109998;28;20432;-77
2023/07/20 02:49:16;;;;;;;10.63;3.83;;;;;;;;;;5109893;28;20016;-78
2023/07/20 02:51:42;;;;;;;11.25;3.50;;;;;;;;;;5094272;28;20048;-76
2023/07/20 02:54:09;;;;;;;9.60;4.32;;;;;;;;;;5093217;28;20024;-78
2023/07/20 02:56:35;;;;;;;10.93;4.20;;;;;;;;;;5073711;28;20024;-77
2023/07/20 02:59:02;;;;;;;13.02;4.10;;;;;;;;;;5090100;28;20028;-78
2023/07/20 03:01:31;;;;;;;12.27;3.90;;;;;;;;;;5093315;28;20499;-77
2023/07/20 03:03:57;;;;;;;11.02;3.78;;;;;;;;;;5109497;28;20028;-77
2023/07/20 03:06:23;;;;;;;13.32;4.07;;;;;;;;;;5109442;28;20476;-78
2023/07/20 03:08:51;;;;;;;11.15;4.13;;;;;;;;;;5109905;28;20024;-78
2023/07/20 03:11:18;;;;;;;16.33;4.85;;;;;;;;;;5109551;28;20503;-77
2023/07/20 03:13:45;;;;;;;14.32;4.30;;;;;;;;;;5109669;28;20116;-78
2023/07/20 03:16:12;;;;;;;11.50;4.75;;;;;;;;;;5109898;28;20020;-78
2023/07/20 03:18:41;;;;;;;14.27;5.18;;;;;;;;;;5109849;28;20054;-77
2023/07/20 03:21:08;;;;;;;12.18;3.97;;;;;;;;;;5109470;28;20460;-76
2023/07/20 03:23:34;;;;;;;13.52;4.25;;;;;;;;;;5109699;28;20028;-78
2023/07/20 03:26:01;;;;;;;13.32;5.28;;;;;;;;;;5109757;28;20016;-78
2023/07/20 03:28:27;;;;;;;14.23;4.32;;;;;;;;;;5109366;28;20487;-78
2023/07/20 03:30:54;;;;;;;13.75;4.40;;;;;;;;;;5093653;28;20032;-77
2023/07/20 03:33:21;;;;;;;14.95;4.93;;;;;;;;;;5093899;28;20020;-78
2023/07/20 03:35:47;;;;;;;11.88;4.85;;;;;;;;;;5109606;28;20027;-77
2023/07/20 03:38:13;;;;;;;15.07;5.32;;;563.40;1766.40;;;;;;5109601;28;20031;-77
2023/07/20 03:40:39;;;;;;;11.55;4.68;;;563.20;1715.20;;;;;;5109238;28;20032;-77
2023/07/20 03:43:04;;;;;;;16.40;4.53;;;563.40;1536.00;;;;;;5109542;28;20028;-77
2023/07/20 03:45:30;;;;;;;12.45;4.50;;;563.50;1228.80;;;;;;5109520;28;20069;-77
2023/07/20 03:47:56;;;;;;;11.00;4.57;;;563.40;1203.20;;;;;;5093802;28;20027;-77
2023/07/20 03:50:22;;;;;;;8.90;3.80;;;563.30;1459.20;;;;;;5109205;28;20039;-77
2023/07/20 03:52:47;;;;;;;11.05;4.18;;;563.30;1459.20;;;;;;5093770;28;20031;-78
2023/07/20 03:55:13;;;;;;;12.50;4.90;;;563.30;1433.60;;;;;;5113115;28;20114;-77
2023/07/20 03:57:39;;;;;;;12.77;5.20;;;563.40;1945.60;;;;;;5097379;28;20472;-78
2023/07/20 04:00:07;;;;;;;10.60;4.40;;;563.50;1484.80;;;;;;5108946;28;20460;-78
2023/07/20 04:02:33;;;;;;;13.27;3.55;;;563.60;1408.00;;;;;;5093233;28;20462;-77
2023/07/20 04:04:59;;;;;;;9.43;4.20;;;563.60;1817.60;;;;;;5109248;28;20024;-78
2023/07/20 04:07:25;;;;;;;14.65;4.05;;;563.40;1971.20;;;;;;5109137;28;20386;-78
2023/07/20 04:09:51;;;;;;;12.07;4.32;;;563.30;1843.20;;;;;;5108643;28;20048;-79
2023/07/20 04:12:17;;;;;;;14.45;5.07;;;563.40;1920.00;;;;;;5109155;28;20481;-78
2023/07/20 04:14:42;;;;;;;11.65;5.00;;;563.20;1792.00;;;;;;5109173;28;20032;-78
2023/07/20 04:17:08;;;;;;;14.98;4.78;;;538.50;1971.20;;;;;;5111989;28;20031;-77
2023/07/20 04:19:34;;;;;;;10.07;4.00;;;538.30;2304.00;;;;;;5097144;28;20078;-78
2023/07/20 04:22:00;;;;;;;13.35;4.32;;;563.20;2176.00;;;;;;5113126;28;20032;-77
2023/07/20 04:24:25;;;;;;;11.65;4.10;;;538.50;1459.20;;;;;;5112817;28;20024;-78
2023/07/20 04:26:51;;;;;;;12.32;4.45;;;563.20;1305.60;;;;;;5097406;28;20024;-78
2023/07/20 04:29:17;;;;;;;10.45;3.80;;;563.30;896.00;;;;;;5097069;28;20062;-77
2023/07/20 04:31:42;;;;;;;12.95;4.63;;;563.50;588.80;;;;;;5112933;28;20035;-78
2023/07/20 04:34:08;;;;;;;13.02;4.40;;;563.50;640.00;;;;;;5096669;28;20141;-78
2023/07/20 04:36:34;;;;;;;15.68;4.53;;;563.40;947.20;;;;;;5112524;28;20024;-79
2023/07/20 04:39:00;;;;;;;15.10;4.57;;;563.50;819.20;;;;;;5112601;28;20031;-78
2023/07/20 04:41:26;;;;;;;16.67;4.90;;;563.50;742.40;;;;;;5097112;28;20116;-77
2023/07/20 04:43:51;;;;;;;12.68;4.32;;;563.60;537.60;;;;;;5112453;28;20024;-78
2023/07/20 04:46:18;;;;;;;13.95;5.45;;;563.60;563.20;;;;;;5112775;28;20021;-78
2023/07/20 04:48:44;;;;;;;11.52;4.72;;;563.60;640.00;;;;;;5096959;28;20032;-76
2023/07/20 04:51:10;;;;;;;12.70;5.10;;;563.60;1100.80;;;;;;5112216;28;20028;-77
2023/07/20 04:53:36;;;;;;;11.65;5.30;;;563.70;819.20;;;;;;5112495;28;20032;-76
2023/07/20 04:56:01;;;;;;;10.55;4.68;;;563.60;1049.60;;;;;;5112218;28;20028;-77
2023/07/20 04:58:27;;;;;;;13.70;4.63;;;563.80;793.60;;;;;;5096457;28;20035;-76
2023/07/20 05:00:53;;;;;;;13.27;4.85;;;563.90;512.00;;;;;;5097023;28;20027;-77
2023/07/20 05:03:19;;;;;;;13.32;5.30;;;563.90;435.20;;;;;;5112386;28;20024;-77
2023/07/20 05:05:46;;;;;;;11.15;4.75;;;563.80;409.60;;;;;;5096577;28;20479;-77
2023/07/20 05:08:12;;;;;;;10.60;4.40;;;563.90;409.60;;;;;;5112292;28;20391;-76
2023/07/20 05:10:37;;;;;;;11.32;5.00;;;564.00;537.60;;;;;;5116492;28;20092;-79
2023/07/20 05:13:03;;;;;;;13.43;5.60;;;564.10;281.60;;;;;;5121338;28;20012;-77
2023/07/20 05:15:29;;;;;;;13.77;4.70;;;564.00;614.40;;;;;;5112181;28;20474;-78
2023/07/20 05:17:55;;;;;;;14.18;5.22;;;563.80;1049.60;;;;;;5112269;28;20073;-79
2023/07/20 05:20:21;;;;;;;15.63;5.00;;;563.80;1126.40;;;;;;5095826;28;20038;-77
2023/07/20 05:22:46;;;;;;;12.95;5.18;;;563.90;947.20;;;;;;5096267;28;20411;-77
2023/07/20 05:25:12;;;;;;;10.90;6.10;;;564.00;742.40;;;;;;5111713;28;20365;-78
2023/07/20 05:27:39;;;;;;;13.95;5.78;;;564.00;972.80;;;;;;5111826;28;20109;-78
2023/07/20 05:30:07;;;;;;;12.57;4.70;;;563.90;870.40;;;;;;5096064;28;20024;-78
2023/07/20 05:32:33;;;;;;;11.60;4.70;;;588.80;793.60;;;;;;5095534;28;20024;-77
2023/07/20 05:34:59;;;;;;;12.05;5.32;;;589.00;640.00;;;;;;5095776;28;20149;-80
2023/07/20 05:37:24;;;;;;;9.63;4.10;;;589.00;793.60;;;;;;5111663;28;20056;-79
2023/07/20 05:39:50;;;;;;;13.35;5.55;;;589.10;998.40;;;;;;5111390;28;20024;-79
2023/07/20 05:42:16;;;;;;;10.05;4.85;;;589.10;947.20;;;;;;5111669;28;20028;-78
2023/07/20 05:44:42;;;;;;;17.02;5.03;;;589.10;1024.00;;;;;;5111592;28;20387;-78
2023/07/20 05:47:08;;;;;;;12.48;4.70;;;588.90;1536.00;;;;;;5111433;28;20024;-78
2023/07/20 05:49:37;;;;;;;11.57;4.20;;;564.10;870.40;;;;;;5111472;28;20031;-79
2023/07/20 05:52:03;;;;;;;8.52;4.13;;;564.00;844.80;;;;;;5111482;28;20117;-78
2023/07/20 05:54:29;;;;;;;10.45;4.00;;;564.00;896.00;;;;;;5095344;28;20066;-80
2023/07/20 05:56:55;;;;;;;9.68;3.80;;;563.90;716.80;;;;;;5095655;28;20027;-79
2023/07/20 05:59:21;;;;;;;9.10;3.92;;;563.90;691.20;;;;;;5095537;28;20047;-77
2023/07/20 06:01:49;;;;;;;9.80;3.75;;;564.10;512.00;;;;;;5110964;28;20085;-80
2023/07/20 06:04:15;;;;;;;10.13;3.97;;;588.80;358.40;;;;;;5095884;28;20028;-78
2023/07/20 06:06:41;;;;;;;12.20;4.43;;;589.00;793.60;;;;;;5111223;28;20525;-77
2023/07/20 06:09:11;;;;;;;10.90;4.05;;;589.20;1459.20;;;;;;5095340;28;20028;-77
2023/07/20 06:11:38;;;;;;;10.82;4.80;;;589.40;1536.00;;;;;;5095494;28;20028;-76
2023/07/20 06:14:04;;;;;;;8.68;4.57;;;589.60;1843.20;;;;;;5111056;28;20043;-76
2023/07/20 06:16:30;;;;;;;10.13;4.55;;;589.50;1459.20;;;;;;5110717;28;20024;-77
2023/07/20 06:18:57;;;;;;;13.10;5.32;;;589.50;844.80;;;;;;5110970;28;20020;-77
2023/07/20 06:21:23;;;;;;;9.85;4.70;;;589.40;1280.00;;;;;;5110751;28;20032;-77
2023/07/20 06:23:48;;;;;;;10.32;4.65;;;589.30;896.00;;;;;;5094912;28;20059;-75
2023/07/20 06:26:15;;;;;;;11.48;4.53;;;589.20;1510.40;;;;;;5110779;28;20073;-75
2023/07/20 06:28:41;;;;;;;10.68;5.30;;;589.30;1843.20;;;;;;5110432;28;20077;-74
2023/07/20 06:31:07;;;;;;;13.45;4.90;;;589.30;2432.00;;;;;;5110705;28;20036;-76
2023/07/20 06:33:34;;;;;;;7.43;5.05;;;589.30;2432.00;;;;;;5094634;28;20024;-76
2023/07/20 06:36:00;;;;;;;10.50;5.68;;;589.40;2432.00;;;;;;5110338;28;20376;-76
2023/07/20 06:38:26;;;;;;;15.35;5.28;;;589.40;2432.00;;;;;;5094109;28;20027;-77
2023/07/20 06:40:52;;;;;;;9.82;4.88;;;589.40;2432.00;;;;;;5110427;28;20031;-76
2023/07/20 06:43:18;;;;;;;14.20;6.32;;;589.30;2432.00;;;;;;5094450;28;20475;-76
2023/07/20 06:45:44;;;;;;;10.82;5.50;;;589.30;2432.00;;;;;;5094441;28;20141;-77
2023/07/20 06:48:10;;;;;;;10.73;4.72;;;589.20;2432.00;;;;;;5110305;28;20027;-76
2023/07/20 06:50:35;;;;;;;12.40;4.55;;;589.30;2432.00;;;;;;5109586;28;20114;-77
2023/07/20 06:53:03;;;;;;;12.40;4.75;;;589.50;2432.00;;;;;;5110289;28;20024;-77
2023/07/20 06:55:29;;;;;;;12.23;5.40;;;589.70;2432.00;;;;;;5093636;28;20024;-76
2023/07/20 06:57:55;;;;;;;9.43;5.50;;;614.40;2432.00;;;;;;5099881;28;20029;-78
2023/07/20 07:00:21;;;;;;;12.80;5.18;;;614.70;2432.00;;;;;;5071275;28;20082;-77
2023/07/20 07:02:47;;;;;;;11.85;5.43;;;614.50;2432.00;;;;;;5072780;28;20031;-78
2023/07/20 07:05:14;;;;;;;10.40;4.45;;;614.70;2432.00;;;;;;5072302;28;20108;-77
2023/07/20 07:07:40;;;;;;;10.95;5.03;;;614.80;2432.00;;;;;;5072628;28;20487;-77
2023/07/20 07:10:07;;;;;;;12.85;4.20;;;614.90;2432.00;;;;;;5072038;28;20127;-76
2023/07/20 07:12:32;;;;;;;6.90;3.35;;;615.00;2432.00;;;;;;5073890;28;20053;-77
2023/07/20 07:14:58;;;;;;;11.82;3.63;;;615.10;2432.00;;;;;;5072619;28;20056;-78
2023/07/20 07:17:24;;;;;;;8.18;3.53;;;615.20;2432.00;;;;;;5072192;28;20471;-78
2023/07/20 07:19:56;;;;;;;9.25;3.30;;;615.20;2432.00;;;;;;5072655;28;20029;-77
2023/07/20 07:22:22;;;;;;;7.38;3.03;;;615.30;2432.00;;;;;;5072548;28;20098;-78
2023/07/20 07:24:48;;;;;;;11.50;3.38;;;640.00;2432.00;;;;;;5072246;28;20498;-78
2023/07/20 07:27:16;;;;;;;7.35;3.13;;;640.20;2432.00;;;;;;5072450;28;20107;-79
2023/07/20 07:29:44;;;;;;;12.30;3.70;;;640.30;2432.00;;;;;;5075315;28;20033;-78
2023/07/20 07:32:11;;;;;;;7.38;3.30;;;640.40;2432.00;;;;;;5072055;28;20035;-81
2023/07/20 07:34:37;;;;;;;15.80;4.20;;;640.40;2432.00;;;;;;5072474;28;20454;-79
2023/07/20 07:37:04;;;;;;;9.13;3.20;;;640.40;2432.00;;;;;;5072235;28;20470;-78
2023/07/20 07:39:30;;;;;;;8.68;3.30;;;640.50;2432.00;;;;;;5073688;28;20039;-80
2023/07/20 07:41:56;;;;;;;7.00;2.78;;;640.60;2432.00;;;;;;5072003;28;20032;-79
2023/07/20 07:44:22;;;;;;;8.25;3.40;;;640.60;2432.00;;;;;;5072660;28;20025;-80
2023/07/20 07:46:48;;;;;;;8.30;3.78;;;640.60;2432.00;;;;;;5071792;28;20492;-81
2023/07/20 07:49:15;;;;;;;9.23;3.95;;;;;;;;;;5072234;28;20036;-78
2023/07/20 07:51:41;;;;;;;8.18;3.20;;;665.70;2432.00;;;;;;5081919;28;20166;-80
2023/07/20 07:54:06;;;;;;;8.77;5.03;;;665.70;2432.00;;;;;;5093285;28;20063;-81
2023/07/20 07:56:32;;;;;;;8.40;4.53;;;;;;;;;;5092566;28;20031;-80
2023/07/20 07:58:59;;;;;;;8.20;3.10;;;;;;;;;;5091047;28;20027;-80
2023/07/20 08:01:25;;;;;;;10.10;3.28;;;640.90;2432.00;;;;;;5092121;28;20471;-80
2023/07/20 08:03:51;;;;;;;6.80;3.03;;;640.70;2432.00;;;;;;5094261;28;20104;-80
2023/07/20 08:06:17;;;;;;;8.05;3.05;;;640.60;2432.00;;;;;;5092097;28;20051;-79
2023/07/20 08:08:43;;;;;;;8.10;3.40;;;640.60;2432.00;;;;;;5094007;28;20106;-81
2023/07/20 08:11:09;;;;;;;6.55;2.90;;;640.70;2432.00;;;;;;5092877;28;20133;-81
2023/07/20 08:13:35;;;;;;;11.45;3.25;;;640.70;2432.00;;;;;;5073722;28;20043;-79
2023/07/20 08:16:02;;;;;;;5.93;3.10;;;640.90;2432.00;;;;;;5096854;28;20008;-81
2023/07/20 08:18:28;;;;;;;6.93;3.25;;;;;;;;;;5074957;28;20033;-81
2023/07/20 08:20:54;;;;;;;10.27;3.03;;;;;;;;;;5072199;28;20059;-78
2023/07/20 08:23:21;;;;;;;7.53;3.05;;;;;;;;;;5071658;28;20472;-81
2023/07/20 08:25:48;;;;;;;11.13;4.75;;;665.80;2432.00;;;;;;5072063;28;20111;-81
2023/07/20 08:28:15;;;;;;;12.10;4.38;;;665.80;2432.00;;;;;;5072018;28;20056;-80
2023/07/20 08:30:45;;;;;;;11.00;4.88;;;665.90;2432.00;;;;;;5074687;28;20095;-77
2023/07/20 08:33:13;;;;;;;12.35;4.63;;;666.30;2432.00;;;;;;5074664;28;20021;-77
2023/07/20 08:35:39;;;;;;;12.07;5.43;;;666.30;2432.00;;;;;;5076528;28;20075;-80
2023/07/20 08:38:05;;;;;;;11.88;6.63;;;691.50;2432.00;;;;;;5092734;28;20036;-81
2023/07/20 08:40:42;;;;;;;12.93;5.57;;;691.80;2432.00;;;;;;5092601;28;20468;-81
2023/07/20 08:43:13;;;;;;;9.68;4.88;;;716.80;2432.00;;;;;;5093771;28;20031;-83
2023/07/20 08:45:41;;;;;;;13.00;5.35;;;717.10;2432.00;;;;;;5094174;28;20024;-83
2023/07/20 08:48:07;;;;;;;10.13;4.53;;;717.10;2432.00;;;;;;5092262;28;20028;-81
2023/07/20 08:50:34;;;;;;;12.95;5.00;;;;;;;;;;5093562;28;20476;-80
2023/07/20 08:53:01;;;;;;;12.27;4.65;;;717.40;2432.00;;;;;;5092787;28;20043;-80
2023/07/20 08:55:28;;;;;;;8.90;4.63;;;717.20;2432.00;;;;;;5092709;28;20122;-79
2023/07/20 08:57:55;;;;;;;12.07;4.55;;;717.10;2432.00;;;;;;5093326;28;20415;-78
2023/07/20 09:00:22;;;;;;;8.10;3.75;;;717.00;2432.00;;;;;;5093402;28;20028;-80
2023/07/20 09:02:51;;;;;;;9.90;4.40;;;716.90;2432.00;;;;;;5094014;28;20032;-78
2023/07/20 09:05:18;;;;;;;13.02;5.18;;;716.90;2432.00;;;;;;5095046;28;20052;-80
2023/07/20 09:07:43;;;;;;;12.80;4.65;;;716.80;2432.00;;;;;;5097900;28;20028;-80
2023/07/20 09:10:10;;;;;;;11.50;4.35;;;717.20;2432.00;;;;;;5096747;28;20094;-81
2023/07/20 09:12:40;;;;;;;22.08;5.05;;;717.30;2432.00;;;;;;5093305;28;20468;-80
2023/07/20 09:15:07;;;;;;;12.10;4.53;;;742.40;2432.00;;;;;;5091517;28;20040;-80
2023/07/20 09:17:33;;;;;;;10.88;5.00;;;717.70;2432.00;;;;;;5092243;28;20020;-78
2023/07/20 09:20:07;;;;;;;7.85;4.43;;;;;;;;;;5079138;28;20413;-79
2023/07/20 09:22:34;;;;;;;11.38;4.78;;;;;;;;;;5092694;28;20067;-81
2023/07/20 09:25:00;;;;;;;9.57;4.50;;;;;;;;;;5091445;28;20056;-78
2023/07/20 09:27:53;;;;;;;9.00;5.13;;;;;;;;;;5092064;28;20115;-80
2023/07/20 09:30:19;;;;;;;9.27;4.28;;;742.60;2432.00;;;;;;5073861;28;20040;-81
2023/07/20 09:32:46;;;;;;;10.98;5.20;;;742.40;2432.00;;;;;;5074670;28;20035;-79
2023/07/20 09:35:17;;;;;;;10.25;3.28;;;742.40;2432.00;;;;;;5091775;28;20413;-81
2023/07/20 09:37:58;;;;;;;12.70;4.88;;;717.40;2432.00;;;;;;5076105;28;20115;-81
2023/07/20 09:40:26;;;;;;;8.27;3.65;;;717.60;2432.00;;;;;;5101247;28;20024;-81
2023/07/20 09:43:03;;;;;;;14.00;4.90;;;742.50;2432.00;;;;;;5095027;28;20589;-80
2023/07/20 09:45:40;;;;;;;9.90;4.03;;;742.70;2432.00;;;;;;5095214;28;20028;-82
2023/07/20 09:48:07;;;;;;;8.05;3.55;;;743.00;2432.00;;;;;;5096133;28;20020;-81
2023/07/20 09:50:34;;;;;;;10.68;4.88;;;743.10;2432.00;;;;;;5095022;28;20031;-80
2023/07/20 09:53:04;;;;;;;11.73;5.00;;;743.30;2432.00;;;;;;5077008;28;20040;-81
2023/07/20 09:55:30;;;;;;;8.60;3.58;;;768.10;2432.00;;;;;;5095312;28;20032;-82
2023/07/20 09:57:56;;;;;;;9.35;3.67;;;768.40;2432.00;;;;;;5094002;28;20371;-82
2023/07/20 10:00:22;;;;;;;9.70;4.20;;;768.40;2432.00;;;;;;5094515;28;20024;-82
2023/07/20 10:02:51;;;;;;;11.52;3.90;;;768.40;2432.00;;;;;;5095973;28;20467;-81
2023/07/20 10:05:18;;;;;;;9.18;3.85;;;768.70;2432.00;;;;;;5093768;28;20035;-81
2023/07/20 10:07:50;;;;;;;9.93;3.58;;;768.90;2432.00;;;;;;5094893;28;20024;-81
2023/07/20 10:10:18;;;;;;;11.85;3.75;;;793.60;2432.00;;;;;;5094449;28;20400;-80
2023/07/20 10:12:48;;;;;;;8.43;5.38;;;793.80;2432.00;;;;;;5093578;28;20035;-81
2023/07/20 10:15:28;;;;;;;11.98;4.93;;;794.00;2432.00;;;;;;5094915;28;20031;-81
2023/07/20 10:18:12;;;;;;;8.57;3.90;;;794.00;2432.00;;;;;;5093770;28;20374;-82
2023/07/20 10:20:41;;;;;;;11.55;5.05;;;793.90;2432.00;;;;;;5095417;28;20040;-81
2023/07/20 10:23:07;;;;;;;14.20;4.85;;;794.10;2432.00;;;;;;5094399;28;20031;-79
2023/07/20 10:25:37;;;;;;;11.20;3.88;;;794.30;2432.00;;;;;;5095221;28;20021;-80
2023/07/20 10:28:08;;;;;;;11.63;4.57;;;794.50;2380.80;;;;;;5093668;28;20480;-80
2023/07/20 10:30:38;;;;;;;12.40;4.23;;;819.30;2406.40;;;;;;5089261;28;20039;-81
2023/07/20 10:33:05;;;;;;;7.18;3.25;;;819.60;2380.80;;;;;;5074519;28;20261;-82
2023/07/20 10:35:31;;;;;;;11.18;5.15;;;819.50;2329.60;;;;;;5089355;28;20063;-82
2023/07/20 10:38:01;;;;;;;14.70;7.88;;;819.40;2329.60;;;;;;5074185;28;20104;-80
2023/07/20 10:40:37;;;;;;;14.23;5.00;;;819.60;2355.20;;;;;;5093558;28;20422;-82
2023/07/20 10:43:08;;;;;;;9.27;4.05;;;819.90;2355.20;;;;;;5095462;28;20052;-82
2023/07/20 10:45:41;;;;;;;8.70;3.53;;;820.10;2304.00;;;;;;5095463;28;20401;-82
2023/07/20 10:48:16;;;;;;;9.38;4.45;;;820.10;2278.40;;;;;;5093569;28;20024;-81
2023/07/20 10:50:43;;;;;;;8.30;3.45;;;844.90;2278.40;;;;;;5094617;28;20027;-80
2023/07/20 10:53:17;;;;;;;10.82;3.47;;;844.90;2278.40;;;;;;5074828;28;20078;-82
2023/07/20 10:55:44;;;;;;;9.30;3.92;;;844.90;2201.60;;;;;;5074333;28;20054;-81
2023/07/20 10:58:14;;;;;;;8.73;3.85;;;820.10;2176.00;;;;;;5073605;28;20025;-82
2023/07/20 11:01:00;;;;;;;9.55;4.35;;;844.90;2227.20;;;;;;5073201;28;20071;-82
2023/07/20 11:03:40;;;;;;;9.82;4.90;;;845.20;2252.80;;;;;;5073141;28;20025;-79
2023/07/20 11:06:27;;;;;;;7.38;3.55;;;845.40;2252.80;;;;;;5073046;28;20035;-78
2023/07/20 11:09:06;;;;;;;8.98;4.03;;;845.40;2176.00;;;;;;5073516;28;20524;-78
2023/07/20 11:11:35;;;;;;;8.35;3.53;;;845.60;2201.60;;;;;;5073936;28;20496;-79
2023/07/20 11:14:09;;;;;;;9.95;3.60;;;844.90;2150.40;;;;;;5073244;28;20051;-78
2023/07/20 11:16:38;;;;;;;9.82;4.85;;;845.20;2176.00;;;;;;5085820;28;20025;-77
2023/07/20 11:19:04;;;;;;;9.23;3.70;;;845.40;2150.40;;;;;;5089828;28;20028;-78
2023/07/20 11:21:38;;;;;;;11.63;4.53;;;845.40;2201.60;;;;;;5072631;28;20028;-79
2023/07/20 11:24:06;;;;;;;13.55;4.07;;;845.70;2150.40;;;;;;5072094;28;20024;-81
2023/07/20 11:26:40;;;;;;;9.35;4.00;;;870.50;2124.80;;;;;;5072093;28;20089;-79
2023/07/20 11:29:06;;;;;;;8.98;3.60;;;845.60;2124.80;;;;;;5072020;28;20028;-80
2023/07/20 11:31:35;;;;;;;9.80;3.58;;;845.40;2124.80;;;;;;5072175;28;20043;-80
2023/07/20 11:34:01;;;;;;;7.63;3.40;;;844.90;2124.80;;;;;;5072174;28;20115;-80
2023/07/20 11:36:27;;;;;;;8.43;3.50;;;845.20;2176.00;;;;;;5072044;28;20131;-80
2023/07/20 11:38:54;;;;;;;8.32;3.60;;;845.70;2099.20;;;;;;5072851;28;20070;-79
2023/07/20 11:41:19;;;;;;;10.23;3.40;;;870.50;2099.20;;;;;;5073644;28;20053;-80
2023/07/20 11:43:46;;;;;;;8.00;3.60;;;845.70;2073.60;;;;;;5071899;28;20111;-80
2023/07/20 11:46:12;;;;;;;7.15;3.20;;;870.40;2150.40;;;;;;5073018;28;20028;-80
2023/07/20 11:48:39;;;;;;;11.50;3.45;;;870.50;2048.00;;;;;;5072602;28;20033;-80
2023/07/20 11:51:05;;;;;;;9.02;3.13;;;870.70;2048.00;;;;;;5073117;28;20410;-80
2023/07/20 11:53:33;;;;;;;8.48;3.15;;;871.00;2073.60;;;;;;5071314;28;20154;-80
2023/07/20 11:55:59;;;;;;;7.22;3.30;;;871.10;2048.00;;;;;;5072106;28;20031;-79
2023/07/20 11:58:27;;;;;;;7.20;3.55;;;871.10;1996.80;;;;;;5071646;28;20025;-80
2023/07/20 12:00:55;;;;;;;5.30;3.35;;;871.30;2022.40;;;;;;5073328;28;20028;-79
2023/07/20 12:03:21;;;;;;;9.85;3.92;;;896.00;1971.20;;;;;;5072218;28;20028;-78
2023/07/20 12:05:47;;;;;;;7.97;3.53;;;896.40;1996.80;;;;;;5072987;28;20025;-78
2023/07/20 12:08:14;;;;;;;7.65;3.30;;;896.60;435.20;;;;;;5073675;28;20422;-79
2023/07/20 12:10:43;;;;;;;9.68;3.05;;;896.80;281.60;;;;;;5071785;28;20080;-78
2023/07/20 12:13:13;;;;;;;6.15;2.90;;;896.90;256.00;;;;;;5071827;28;20385;-79
2023/07/20 12:15:39;;;;;;;7.03;3.42;;;921.90;281.60;;;;;;5073156;28;20023;-79
2023/07/20 12:18:05;;;;;;;5.35;3.10;;;921.90;281.60;;;;;;5055328;28;20036;-79
2023/07/20 12:20:36;;;;;;;9.90;3.40;;;921.90;281.60;;;;;;5072532;28;20035;-80
2023/07/20 12:23:09;;;;;;;6.28;2.92;;;896.90;256.00;;;;;;5074442;28;20031;-79
2023/07/20 12:25:46;;;;;;;7.82;3.33;;;896.80;256.00;;;;;;5072205;28;20071;-80
2023/07/20 12:28:14;;;;;;;7.57;3.50;;;896.90;256.00;;;;;;5073303;28;20023;-80
2023/07/20 12:30:41;;;;;;;7.97;2.78;;;921.70;281.60;;;;;;5073243;28;20028;-80
2023/07/20 12:33:07;;;;;;;6.95;3.22;;;921.80;281.60;;;;;;5073367;28;20021;-81
2023/07/20 12:35:33;;;;;;;9.13;3.67;;;921.90;281.60;;;;;;5072833;28;20028;-80
2023/07/20 12:37:59;;;;;;;9.00;4.20;;;922.00;281.60;;;;;;5075246;28;20024;-80
2023/07/20 12:40:25;;;;;;;9.45;4.65;;;922.00;281.60;;;;;;5077278;28;20054;-80
2023/07/20 12:42:51;;;;;;;7.95;4.28;;;922.10;281.60;;;;;;5082885;28;20111;-82
2023/07/20 12:45:17;;;;;;;8.77;3.28;;;922.30;281.60;;;;;;5085905;28;20021;-81
2023/07/20 12:47:43;;;;;;;9.98;5.07;;;922.30;281.60;;;;;;5085345;28;20028;-80
2023/07/20 12:50:10;;;;;;;9.73;4.53;;;922.30;281.60;;;;;;5085086;28;20120;-81
2023/07/20 12:52:38;;;;;;;13.27;4.82;;;922.40;281.60;;;;;;5078647;28;20028;-80
2023/07/20 12:55:05;;;;;;;8.05;3.78;;;922.40;281.60;;;;;;5076586;28;20020;-79